Time;durP1;ratioP1;P1;durP2;ratioP2;P2;SDS_P1;SDS_P2;PMS_P1;PMS_P2;Temp;Humidity;BMP_temperature;BMP_pressure;BME280_temperature;BME280_humidity;BME280_pressure;Samples;Min_cycle;Max_cycle;Signal;HPM_P1;HPM_P2
2021/01/31 00:00:15;;;;;;;19.03;15.20;;;7.60;99.90;;;;;;5112239;28;20215;-81
2021/01/31 00:02:41;;;;;;;19.00;15.80;;;7.60;99.90;;;;;;5111995;28;20186;-81
2021/01/31 00:05:07;;;;;;;19.60;15.73;;;7.60;99.90;;;;;;5112395;28;20270;-81
2021/01/31 00:07:33;;;;;;;18.65;15.30;;;7.50;99.90;;;;;;5111675;28;20211;-81
2021/01/31 00:09:58;;;;;;;20.17;14.73;;;7.50;99.90;;;;;;5113237;28;20213;-81
2021/01/31 00:12:24;;;;;;;18.83;15.43;;;7.50;99.90;;;;;;5112244;28;20587;-82
2021/01/31 00:14:50;;;;;;;17.60;15.50;;;7.50;99.90;;;;;;5112088;28;20526;-81
2021/01/31 00:17:15;;;;;;;20.57;15.40;;;7.50;99.90;;;;;;5113448;28;20179;-81
2021/01/31 00:19:41;;;;;;;18.97;16.23;;;7.30;99.90;;;;;;5111825;28;20179;-81
2021/01/31 00:22:07;;;;;;;17.03;14.07;;;7.40;99.90;;;;;;5111857;28;20546;-81
2021/01/31 00:24:32;;;;;;;17.03;13.17;;;7.40;99.90;;;;;;5112016;28;20179;-81
2021/01/31 00:26:58;;;;;;;15.67;13.83;;;7.40;99.90;;;;;;5113059;28;20176;-81
2021/01/31 00:29:24;;;;;;;12.77;11.47;;;7.40;99.90;;;;;;5113720;28;20221;-81
2021/01/31 00:31:50;;;;;;;15.07;11.70;;;7.40;99.90;;;;;;5111860;28;20539;-81
2021/01/31 00:34:20;;;;;;;12.80;11.50;;;7.30;99.90;;;;;;5117035;28;20184;-81
2021/01/31 00:36:47;;;;;;;16.20;12.32;;;7.30;99.90;;;;;;5115640;28;20172;-81
2021/01/31 00:39:13;;;;;;;13.45;11.90;;;7.30;99.90;;;;;;5115254;28;20267;-81
2021/01/31 00:41:39;;;;;;;12.45;11.25;;;7.20;99.90;;;;;;5116785;28;20183;-81
2021/01/31 00:44:07;;;;;;;13.00;11.70;;;7.20;99.90;;;;;;5116734;28;20183;-81
2021/01/31 00:46:38;;;;;;;13.68;12.27;;;7.20;99.90;;;;;;5116514;28;20179;-81
2021/01/31 00:49:05;;;;;;;14.85;12.07;;;7.20;99.90;;;;;;5115637;28;20216;-81
2021/01/31 00:51:31;;;;;;;16.45;13.13;;;7.10;99.90;;;;;;5115363;28;20180;-81
2021/01/31 00:53:56;;;;;;;16.57;12.97;;;7.10;99.90;;;;;;5116841;28;20580;-81
2021/01/31 00:56:22;;;;;;;15.27;13.20;;;7.00;99.90;;;;;;5116129;28;20413;-82
2021/01/31 00:58:48;;;;;;;18.60;14.37;;;6.70;99.90;;;;;;5116043;28;20231;-81
2021/01/31 01:01:17;;;;;;;13.73;12.30;;;6.80;99.90;;;;;;5116296;28;20176;-81
2021/01/31 01:03:44;;;;;;;15.70;12.45;;;6.70;99.90;;;;;;5116600;28;20176;-81
2021/01/31 01:06:10;;;;;;;16.25;12.00;;;6.60;99.90;;;;;;5115647;28;20590;-80
2021/01/31 01:08:36;;;;;;;15.77;12.23;;;6.70;99.90;;;;;;5114898;28;20223;-81
2021/01/31 01:11:02;;;;;;;13.67;11.77;;;6.70;99.90;;;;;;5114932;28;20603;-81
2021/01/31 01:13:28;;;;;;;13.90;12.37;;;6.60;99.90;;;;;;5114424;28;20182;-80
2021/01/31 01:15:54;;;;;;;14.32;11.30;;;6.70;99.90;;;;;;5114733;28;20447;-81
2021/01/31 01:18:20;;;;;;;12.40;11.20;;;6.60;99.90;;;;;;5116259;28;20207;-81
2021/01/31 01:20:46;;;;;;;12.70;10.25;;;6.50;99.90;;;;;;5115863;28;20179;-81
2021/01/31 01:23:12;;;;;;;14.60;11.10;;;6.50;99.90;;;;;;5115592;28;20184;-81
2021/01/31 01:25:37;;;;;;;13.83;11.00;;;6.30;99.90;;;;;;5114859;27;20171;-80
2021/01/31 01:28:03;;;;;;;13.23;10.93;;;6.40;99.90;;;;;;5113602;28;20260;-81
2021/01/31 01:30:31;;;;;;;11.20;9.93;;;6.30;99.90;;;;;;5113562;28;20244;-81
2021/01/31 01:32:58;;;;;;;12.15;10.27;;;6.30;99.90;;;;;;5115329;28;20383;-81
2021/01/31 01:35:24;;;;;;;12.10;10.90;;;6.10;99.90;;;;;;5114948;28;20186;-81
2021/01/31 01:37:50;;;;;;;12.40;11.00;;;6.20;99.90;;;;;;5114974;28;20840;-81
2021/01/31 01:40:22;;;;;;;14.07;10.95;;;6.20;99.90;;;;;;5114535;28;20187;-81
2021/01/31 01:42:49;;;;;;;11.77;10.57;;;6.10;99.90;;;;;;5113871;28;20183;-81
2021/01/31 01:45:15;;;;;;;15.90;10.70;;;6.10;99.90;;;;;;5114116;28;20217;-81
2021/01/31 01:47:41;;;;;;;14.27;11.95;;;6.10;99.90;;;;;;5114613;28;20698;-80
2021/01/31 01:50:27;;;;;;;12.50;11.23;;;6.20;99.90;;;;;;5114253;28;20168;-81
2021/01/31 01:52:55;;;;;;;14.52;11.05;;;6.10;99.90;;;;;;5112674;28;20866;-80
2021/01/31 01:55:23;;;;;;;12.95;10.68;;;6.00;99.90;;;;;;5114423;27;20171;-80
2021/01/31 01:57:54;;;;;;;14.75;12.63;;;6.00;99.90;;;;;;5112496;28;20271;-80
2021/01/31 02:00:21;;;;;;;13.38;11.88;;;6.00;99.90;;;;;;5112891;28;20199;-80
2021/01/31 02:02:58;;;;;;;17.85;13.93;;;5.90;99.90;;;;;;5113737;28;20329;-80
2021/01/31 02:05:25;;;;;;;31.88;22.38;;;6.10;99.90;;;;;;5114287;28;20282;-80
2021/01/31 02:07:52;;;;;;;41.60;25.95;;;6.30;99.90;;;;;;5112574;28;20214;-80
2021/01/31 02:10:20;;;;;;;50.53;31.75;;;6.50;99.90;;;;;;5112763;28;20184;-80
2021/01/31 02:12:47;;;;;;;48.90;30.48;;;6.50;99.90;;;;;;5114748;28;20172;-80
2021/01/31 02:15:15;;;;;;;55.15;33.00;;;6.30;99.90;;;;;;5114453;28;20176;-81
2021/01/31 02:18:14;;;;;;;48.30;28.70;;;5.90;99.90;;;;;;5111893;28;20589;-81
2021/01/31 02:21:01;;;;;;;49.25;27.65;;;5.70;99.90;;;;;;5113327;28;20187;-80
2021/01/31 02:24:03;;;;;;;44.25;29.17;;;5.60;99.90;;;;;;5112372;28;20579;-80
2021/01/31 02:26:53;;;;;;;47.53;31.25;;;5.30;99.90;;;;;;5114579;28;20175;-80
2021/01/31 02:29:33;;;;;;;46.92;26.33;;;5.10;99.90;;;;;;5114025;28;20282;-80
2021/01/31 02:32:20;;;;;;;46.88;28.15;;;4.80;99.90;;;;;;5114221;28;20563;-80
2021/01/31 02:35:09;;;;;;;34.80;20.42;;;4.70;99.90;;;;;;5112080;28;20523;-80
2021/01/31 02:37:48;;;;;;;39.92;25.83;;;4.40;99.90;;;;;;5113921;28;20172;-80
2021/01/31 02:40:29;;;;;;;39.95;24.35;;;4.30;99.90;;;;;;5113319;28;20180;-80
2021/01/31 02:43:01;;;;;;;36.15;23.50;;;4.20;99.90;;;;;;5113534;27;20167;-80
2021/01/31 02:45:37;;;;;;;23.52;13.45;;;4.00;99.90;;;;;;5112865;28;20271;-80
2021/01/31 02:48:23;;;;;;;35.58;22.48;;;4.20;99.90;;;;;;5113983;28;20556;-80
2021/01/31 02:51:14;;;;;;;34.38;23.13;;;4.20;99.90;;;;;;5113181;28;20172;-80
2021/01/31 02:54:06;;;;;;;29.95;17.90;;;4.20;99.90;;;;;;5111611;28;20202;-80
2021/01/31 02:57:04;;;;;;;29.70;17.23;;;3.80;99.90;;;;;;5103376;28;20191;-80
2021/01/31 02:59:41;;;;;;;30.95;18.90;;;4.00;99.90;;;;;;5112922;28;20311;-80
2021/01/31 03:02:17;;;;;;;34.80;21.08;;;3.60;99.90;;;;;;5111787;28;20175;-80
2021/01/31 03:05:14;;;;;;;27.25;18.65;;;3.40;99.90;;;;;;5112675;28;20224;-81
2021/01/31 03:08:11;;;;;;;26.48;16.90;;;3.60;99.90;;;;;;5110016;28;20223;-80
2021/01/31 03:10:55;;;;;;;27.88;17.02;;;3.70;99.90;;;;;;5108214;28;20503;-80
2021/01/31 03:13:48;;;;;;;31.50;18.58;;;3.50;99.90;;;;;;5113453;28;20180;-80
2021/01/31 03:16:24;;;;;;;33.53;19.35;;;3.40;99.90;;;;;;5113446;28;20168;-80
2021/01/31 03:19:00;;;;;;;32.35;18.77;;;3.30;99.90;;;;;;5113365;28;20183;-81
2021/01/31 03:21:29;;;;;;;30.70;18.00;;;3.30;99.90;;;;;;5113486;28;20524;-80
2021/01/31 03:24:01;;;;;;;30.52;17.75;;;3.30;99.90;;;;;;5112712;28;20172;-81
2021/01/31 03:26:57;;;;;;;26.60;17.98;;;3.30;99.90;;;;;;5111733;28;20187;-81
2021/01/31 03:29:24;;;;;;;26.27;16.25;;;3.10;99.90;;;;;;5111799;28;20196;-80
2021/01/31 03:31:57;;;;;;;24.63;16.00;;;3.30;99.90;;;;;;5113096;28;20318;-80
2021/01/31 03:34:31;;;;;;;30.02;15.82;;;3.50;99.90;;;;;;5111930;28;20202;-81
2021/01/31 03:37:02;;;;;;;26.63;15.15;;;3.20;99.90;;;;;;5113274;28;20171;-80
2021/01/31 03:39:29;;;;;;;25.80;15.15;;;3.10;99.90;;;;;;5112927;28;20258;-81
2021/01/31 03:41:55;;;;;;;31.65;18.10;;;2.90;99.90;;;;;;5112904;28;20172;-81
2021/01/31 03:44:22;;;;;;;30.20;17.10;;;2.60;99.90;;;;;;5113306;28;20643;-80
2021/01/31 03:46:56;;;;;;;25.42;12.52;;;2.50;99.90;;;;;;5112895;28;20385;-81
2021/01/31 03:49:31;;;;;;;26.00;18.13;;;2.60;99.90;;;;;;5113133;28;20198;-81
2021/01/31 03:51:58;;;;;;;28.95;17.75;;;2.60;99.90;;;;;;5111699;28;20259;-81
2021/01/31 03:54:25;;;;;;;30.55;17.50;;;2.70;99.90;;;;;;5112727;28;20217;-81
2021/01/31 03:56:55;;;;;;;31.58;17.40;;;2.50;99.90;;;;;;5110818;28;20205;-81
2021/01/31 03:59:26;;;;;;;25.27;17.02;;;2.40;99.90;;;;;;5112131;28;20251;-80
2021/01/31 04:01:55;;;;;;;28.10;17.45;;;2.50;99.90;;;;;;5112400;28;20181;-80
2021/01/31 04:04:36;;;;;;;30.52;16.92;;;2.60;99.90;;;;;;5113106;28;20180;-80
2021/01/31 04:07:05;;;;;;;24.67;16.77;;;2.50;99.90;;;;;;5113284;28;20182;-80
2021/01/31 04:09:34;;;;;;;29.10;18.13;;;2.50;99.90;;;;;;5115048;28;20216;-81
2021/01/31 04:12:06;;;;;;;29.92;17.92;;;2.40;99.90;;;;;;5115609;28;20190;-80
2021/01/31 04:14:53;;;;;;;30.20;17.35;;;2.50;99.90;;;;;;5115209;28;20184;-80
2021/01/31 04:17:19;;;;;;;22.88;13.68;;;2.70;99.90;;;;;;5115133;28;20191;-80
2021/01/31 04:19:46;;;;;;;25.63;16.40;;;2.30;99.90;;;;;;5116591;28;20660;-81
2021/01/31 04:22:11;;;;;;;31.80;18.08;;;2.20;99.90;;;;;;5116319;28;20491;-81
2021/01/31 04:24:37;;;;;;;27.13;16.97;;;2.10;99.90;;;;;;5116511;28;20309;-80
2021/01/31 04:27:03;;;;;;;29.00;16.40;;;2.10;99.90;;;;;;5116080;28;20550;-80
2021/01/31 04:29:29;;;;;;;14.73;8.65;;;2.10;99.90;;;;;;5116498;28;20183;-80
2021/01/31 04:31:54;;;;;;;28.03;18.93;;;2.40;99.90;;;;;;5116844;28;20260;-80
2021/01/31 04:34:20;;;;;;;31.10;19.10;;;2.60;99.90;;;;;;5116627;28;20287;-80
2021/01/31 04:36:46;;;;;;;28.87;18.13;;;2.40;99.90;;;;;;5114620;28;20261;-80
2021/01/31 04:39:12;;;;;;;24.58;16.50;;;2.10;99.90;;;;;;5116507;28;20472;-80
2021/01/31 04:41:41;;;;;;;26.93;16.90;;;2.00;99.90;;;;;;5115968;27;20644;-81
2021/01/31 04:44:11;;;;;;;31.42;17.83;;;1.80;99.90;;;;;;5115464;28;20692;-81
2021/01/31 04:46:42;;;;;;;27.92;15.98;;;1.70;99.90;;;;;;5114417;28;20195;-80
2021/01/31 04:49:26;;;;;;;28.52;17.92;;;1.60;99.90;;;;;;5115640;28;20620;-80
2021/01/31 04:52:23;;;;;;;28.70;16.48;;;1.50;99.90;;;;;;5114299;28;20175;-80
2021/01/31 04:55:14;;;;;;;25.38;15.63;;;1.50;99.90;;;;;;5116059;28;20628;-81
2021/01/31 04:57:45;;;;;;;29.15;15.57;;;1.50;99.90;;;;;;5113497;28;20188;-81
2021/01/31 05:00:22;;;;;;;29.55;16.52;;;1.40;99.90;;;;;;5114622;28;20245;-80
2021/01/31 05:02:54;;;;;;;34.25;22.05;;;1.70;99.90;;;;;;5115067;28;20175;-81
2021/01/31 05:05:23;;;;;;;43.13;28.88;;;1.50;99.90;;;;;;5115779;28;20203;-80
2021/01/31 05:07:57;;;;;;;25.20;15.75;;;1.70;99.90;;;;;;5115333;28;20219;-80
2021/01/31 05:10:25;;;;;;;29.25;17.23;;;1.70;99.90;;;;;;5115115;28;20165;-80
2021/01/31 05:13:09;;;;;;;25.58;14.02;;;1.70;99.90;;;;;;5113626;28;20627;-81
2021/01/31 05:15:58;;;;;;;29.52;16.27;;;1.70;99.90;;;;;;5114211;28;20515;-80
2021/01/31 05:18:24;;;;;;;30.88;16.65;;;2.10;99.90;;;;;;5108407;28;20231;-80
2021/01/31 05:20:57;;;;;;;25.58;16.60;;;1.80;99.90;;;;;;5113817;28;20180;-81
2021/01/31 05:23:23;;;;;;;30.58;19.67;;;1.70;99.90;;;;;;5113845;28;20191;-80
2021/01/31 05:25:49;;;;;;;34.50;18.93;;;1.80;99.90;;;;;;5114283;28;20183;-80
2021/01/31 05:28:14;;;;;;;27.10;17.43;;;1.80;99.90;;;;;;5113266;28;20537;-80
2021/01/31 05:30:46;;;;;;;22.97;13.43;;;1.60;99.90;;;;;;5113564;28;20421;-81
2021/01/31 05:33:21;;;;;;;25.02;16.02;;;1.80;99.90;;;;;;5114431;28;20184;-81
2021/01/31 05:36:06;;;;;;;25.38;14.73;;;1.50;99.90;;;;;;5113284;28;20227;-80
2021/01/31 05:38:38;;;;;;;29.15;16.80;;;1.30;99.90;;;;;;5113587;28;20233;-80
2021/01/31 05:41:28;;;;;;;32.20;18.60;;;1.30;99.90;;;;;;5114580;28;20519;-81
2021/01/31 05:44:00;;;;;;;24.40;13.48;;;1.20;99.90;;;;;;5114277;28;20179;-81
2021/01/31 05:46:40;;;;;;;27.00;15.90;;;1.30;99.90;;;;;;5112772;28;20241;-81
2021/01/31 05:49:10;;;;;;;21.17;12.85;;;1.40;99.90;;;;;;5112331;28;20227;-80
2021/01/31 05:51:36;;;;;;;27.58;17.05;;;1.30;99.90;;;;;;5112403;28;20636;-80
2021/01/31 05:54:19;;;;;;;29.87;16.80;;;1.40;99.90;;;;;;5112022;28;20207;-81
2021/01/31 05:56:46;;;;;;;27.92;16.10;;;1.20;99.90;;;;;;5113022;28;20755;-81
2021/01/31 05:59:14;;;;;;;32.97;19.25;;;1.20;99.90;;;;;;5112280;28;20238;-81
2021/01/31 06:02:18;;;;;;;57.75;29.05;;;1.30;99.90;;;;;;5111699;28;20346;-81
2021/01/31 06:04:44;;;;;;;42.80;22.45;;;1.10;99.90;;;;;;5102622;28;20336;-81
2021/01/31 06:07:12;;;;;;;31.53;16.00;;;1.20;99.90;;;;;;5113122;28;20263;-80
2021/01/31 06:09:49;;;;;;;26.20;16.25;;;1.20;99.90;;;;;;5113763;28;20177;-81
2021/01/31 06:12:21;;;;;;;26.35;14.98;;;1.10;99.90;;;;;;5111575;28;20180;-81
2021/01/31 06:15:08;;;;;;;23.38;14.40;;;1.10;99.90;;;;;;5113319;28;20176;-81
2021/01/31 06:17:35;;;;;;;23.92;14.82;;;1.10;99.90;;;;;;5112080;28;20179;-81
2021/01/31 06:20:17;;;;;;;27.20;15.98;;;1.00;99.90;;;;;;5113953;28;20183;-81
2021/01/31 06:22:47;;;;;;;27.10;15.32;;;1.10;99.90;;;;;;5112465;28;20172;-80
2021/01/31 06:25:32;;;;;;;27.73;16.30;;;1.10;99.90;;;;;;5111982;28;20180;-81
2021/01/31 06:28:15;;;;;;;30.77;17.65;;;1.00;99.90;;;;;;5095155;28;20215;-80
2021/01/31 06:30:56;;;;;;;26.05;14.55;;;1.30;99.90;;;;;;5111941;28;20172;-81
2021/01/31 06:33:22;;;;;;;22.08;15.00;;;1.20;99.90;;;;;;5112414;28;20179;-81
2021/01/31 06:36:19;;;;;;;24.38;15.25;;;1.20;99.90;;;;;;5112138;27;20187;-80
2021/01/31 06:39:01;;;;;;;24.95;13.82;;;1.00;99.90;;;;;;5101094;28;20187;-81
2021/01/31 06:41:45;;;;;;;21.13;11.82;;;1.00;99.90;;;;;;5111374;28;20176;-81
2021/01/31 06:44:48;;;;;;;22.70;13.68;;;1.00;99.90;;;;;;5111734;28;20188;-81
2021/01/31 06:47:39;;;;;;;25.75;14.00;;;0.90;99.90;;;;;;5113087;28;20656;-81
2021/01/31 06:50:23;;;;;;;21.60;13.90;;;0.90;99.90;;;;;;5110810;28;20184;-81
2021/01/31 06:53:00;;;;;;;22.90;12.20;;;0.90;99.90;;;;;;5112424;28;20620;-81
2021/01/31 06:55:46;;;;;;;27.25;15.32;;;0.90;99.90;;;;;;5110711;28;20274;-81
2021/01/31 06:58:18;;;;;;;23.83;14.20;;;1.00;99.90;;;;;;5112320;28;20238;-81
2021/01/31 07:01:01;;;;;;;25.77;13.50;;;0.90;99.90;;;;;;5112212;28;20176;-81
2021/01/31 07:04:05;;;;;;;25.67;15.00;;;0.80;99.90;;;;;;5112532;28;20176;-80
2021/01/31 07:07:05;;;;;;;23.50;13.10;;;0.80;99.90;;;;;;5110459;28;20666;-81
2021/01/31 07:09:56;;;;;;;23.00;13.45;;;1.00;99.90;;;;;;5077781;28;20640;-80
2021/01/31 07:12:26;;;;;;;23.13;14.50;;;1.10;99.90;;;;;;5111356;28;20520;-81
2021/01/31 07:14:52;;;;;;;25.33;14.93;;;1.10;99.90;;;;;;5111239;28;20168;-80
2021/01/31 07:17:42;;;;;;;25.77;14.97;;;1.10;99.90;;;;;;5111772;28;20164;-80
2021/01/31 07:20:14;;;;;;;27.67;15.15;;;1.50;99.90;;;;;;5111857;28;20164;-80
2021/01/31 07:23:12;;;;;;;28.58;15.43;;;1.40;99.90;;;;;;5110141;28;20721;-80
2021/01/31 07:25:41;;;;;;;25.05;15.50;;;1.30;99.90;;;;;;5107117;28;20532;-80
2021/01/31 07:28:38;;;;;;;22.10;13.45;;;1.30;99.90;;;;;;5109333;28;20212;-80
2021/01/31 07:31:28;;;;;;;22.55;12.10;;;1.20;99.90;;;;;;5102983;28;20261;-80
2021/01/31 07:34:03;;;;;;;16.52;10.38;;;1.10;99.90;;;;;;5090071;28;20269;-80
2021/01/31 07:36:40;;;;;;;24.83;12.18;;;1.00;99.90;;;;;;5108093;28;20184;-80
2021/01/31 07:39:47;;;;;;;23.60;15.23;;;1.10;99.90;;;;;;5109933;28;20179;-80
2021/01/31 07:42:15;;;;;;;23.05;12.65;;;1.20;99.90;;;;;;5107388;28;20274;-80
2021/01/31 07:44:42;;;;;;;21.38;14.68;;;1.20;99.90;;;;;;5108891;28;20270;-80
2021/01/31 07:47:08;;;;;;;24.40;14.77;;;1.10;99.90;;;;;;5110082;28;20587;-80
2021/01/31 07:49:55;;;;;;;26.10;16.17;;;1.20;99.90;;;;;;5111527;28;20255;-80
2021/01/31 07:52:29;;;;;;;22.20;13.10;;;1.30;99.90;;;;;;5108486;28;20171;-80
2021/01/31 07:55:28;;;;;;;23.23;14.05;;;1.30;99.90;;;;;;5110161;28;20719;-80
2021/01/31 07:58:09;;;;;;;19.77;11.90;;;1.30;99.90;;;;;;5110569;28;20257;-80
2021/01/31 08:00:44;;;;;;;20.88;13.65;;;1.50;99.90;;;;;;5109039;28;20215;-80
2021/01/31 08:03:32;;;;;;;10.00;6.90;;;1.50;99.90;;;;;;5109299;28;20195;-80
2021/01/31 08:06:09;;;;;;;23.98;14.75;;;1.60;99.90;;;;;;5110747;28;20256;-80
2021/01/31 08:08:40;;;;;;;18.95;11.43;;;1.40;99.90;;;;;;5111178;28;20202;-80
2021/01/31 08:11:32;;;;;;;24.98;13.80;;;1.30;99.90;;;;;;5109332;28;20191;-80
2021/01/31 08:13:58;;;;;;;25.83;13.88;;;1.30;99.90;;;;;;5109495;28;20715;-80
2021/01/31 08:16:48;;;;;;;19.97;11.60;;;1.20;99.90;;;;;;5108473;28;20275;-80
2021/01/31 08:19:17;;;;;;;21.42;13.82;;;1.10;99.90;;;;;;5108786;28;20262;-81
2021/01/31 08:21:53;;;;;;;11.00;5.80;;;1.40;99.90;;;;;;5109277;28;20187;-80
2021/01/31 08:24:56;;;;;;;21.85;13.00;;;1.50;99.90;;;;;;5110692;28;20168;-80
2021/01/31 08:27:42;;;;;;;26.98;15.35;;;1.30;99.90;;;;;;5110553;28;20647;-80
2021/01/31 08:30:34;;;;;;;19.58;12.10;;;1.40;99.90;;;;;;5110253;28;20566;-80
2021/01/31 08:33:06;;;;;;;22.33;13.57;;;1.50;99.90;;;;;;5110292;28;20175;-80
2021/01/31 08:35:37;;;;;;;21.05;11.63;;;1.40;99.90;;;;;;5110771;28;20237;-80
2021/01/31 08:38:24;;;;;;;21.83;13.05;;;1.40;99.90;;;;;;5108946;28;20674;-80
2021/01/31 08:43:33;;;;;;;24.65;12.70;;;1.40;99.90;;;;;;5090659;28;20529;-80
2021/01/31 08:46:21;;;;;;;25.58;13.27;;;1.80;99.90;;;;;;5090381;28;20169;-80
2021/01/31 08:48:53;;;;;;;21.23;12.07;;;1.60;99.90;;;;;;5090059;28;20284;-80
2021/01/31 08:51:25;;;;;;;22.33;13.02;;;1.20;99.90;;;;;;5088801;28;20184;-80
2021/01/31 08:54:12;;;;;;;19.27;11.95;;;1.20;99.90;;;;;;5089515;28;20176;-80
2021/01/31 08:56:48;;;;;;;22.75;12.02;;;1.30;99.90;;;;;;5092809;28;20652;-80
2021/01/31 08:59:20;;;;;;;27.13;15.32;;;1.30;99.90;;;;;;5093513;28;20219;-80
2021/01/31 09:01:49;;;;;;;21.80;13.30;;;1.30;99.90;;;;;;5093972;28;20195;-80
2021/01/31 09:04:20;;;;;;;22.98;13.00;;;1.10;99.90;;;;;;5093076;28;20640;-80
2021/01/31 09:06:48;;;;;;;13.88;8.52;;;1.10;99.90;;;;;;5092415;28;20176;-80
2021/01/31 09:09:35;;;;;;;20.92;11.63;;;1.40;99.90;;;;;;5092347;28;20226;-80
2021/01/31 09:12:13;;;;;;;26.20;14.80;;;1.40;99.90;;;;;;5093723;28;20669;-81
2021/01/31 09:14:41;;;;;;;24.95;15.88;;;1.30;99.90;;;;;;5094127;28;20176;-80
2021/01/31 09:17:09;;;;;;;30.83;15.75;;;1.30;99.90;;;;;;5094299;28;20628;-80
2021/01/31 09:19:36;;;;;;;24.70;14.77;;;1.40;99.90;;;;;;5092554;28;20253;-80
2021/01/31 09:22:18;;;;;;;26.85;15.45;;;1.30;99.90;;;;;;5092051;28;20639;-80
2021/01/31 09:24:50;;;;;;;23.88;14.60;;;1.50;99.90;;;;;;5093563;28;20176;-80
2021/01/31 09:27:23;;;;;;;22.40;14.32;;;1.40;99.90;;;;;;5092834;28;20160;-81
2021/01/31 09:29:55;;;;;;;25.50;15.73;;;1.40;99.90;;;;;;5092422;28;20176;-80
2021/01/31 09:32:30;;;;;;;24.23;14.70;;;1.40;99.90;;;;;;5093523;28;20168;-81
2021/01/31 09:34:57;;;;;;;26.10;15.68;;;1.50;99.90;;;;;;5100021;28;20171;-80
2021/01/31 09:37:26;;;;;;;28.33;16.25;;;1.50;99.90;;;;;;5111645;28;20277;-80
2021/01/31 09:39:54;;;;;;;30.00;16.10;;;1.40;99.90;;;;;;5113660;27;20176;-81
2021/01/31 09:42:21;;;;;;;21.75;12.35;;;1.30;99.90;;;;;;5111959;28;20180;-80
2021/01/31 09:44:55;;;;;;;26.50;16.02;;;1.60;99.90;;;;;;5112476;28;20294;-80
2021/01/31 09:47:22;;;;;;;24.67;14.60;;;1.60;99.90;;;;;;5113112;28;20152;-81
2021/01/31 09:49:53;;;;;;;24.00;15.30;;;1.60;99.90;;;;;;5111783;28;20176;-81
2021/01/31 09:52:19;;;;;;;24.77;14.63;;;1.50;99.90;;;;;;5112212;28;20207;-81
2021/01/31 09:54:45;;;;;;;25.30;15.87;;;1.50;99.90;;;;;;5113183;28;20262;-81
2021/01/31 09:57:25;;;;;;;25.67;14.80;;;1.50;99.90;;;;;;5113742;28;20418;-81
2021/01/31 10:00:06;;;;;;;21.23;11.98;;;1.70;99.90;;;;;;5113278;28;20238;-81
2021/01/31 10:02:34;;;;;;;25.88;13.75;;;1.60;99.90;;;;;;5111648;28;20183;-81
2021/01/31 10:05:02;;;;;;;27.60;15.82;;;1.50;99.90;;;;;;5111870;28;20176;-81
2021/01/31 10:07:34;;;;;;;27.60;16.02;;;1.50;99.90;;;;;;5111795;28;20180;-81
2021/01/31 10:10:23;;;;;;;28.05;15.27;;;1.50;99.90;;;;;;5112730;28;20581;-81
2021/01/31 10:13:09;;;;;;;24.20;14.23;;;1.50;99.90;;;;;;5111900;28;20182;-81
2021/01/31 10:15:39;;;;;;;28.27;16.02;;;1.60;99.90;;;;;;5080979;28;20282;-80
2021/01/31 10:18:12;;;;;;;25.98;15.57;;;1.60;99.90;;;;;;5112615;28;20184;-81
2021/01/31 10:20:40;;;;;;;28.60;14.23;;;1.60;99.90;;;;;;5112656;28;20172;-81
2021/01/31 10:23:13;;;;;;;37.65;18.23;;;1.50;99.90;;;;;;5112906;28;20187;-81
2021/01/31 10:25:41;;;;;;;33.92;16.15;;;1.50;99.90;;;;;;5112859;28;20255;-81
2021/01/31 10:28:12;;;;;;;34.38;18.65;;;1.50;99.90;;;;;;5112247;28;20762;-81
2021/01/31 10:30:50;;;;;;;36.03;18.95;;;1.50;99.90;;;;;;5112932;28;20172;-81
2021/01/31 10:33:35;;;;;;;36.75;17.13;;;1.50;99.90;;;;;;5113790;28;20271;-81
2021/01/31 10:36:34;;;;;;;25.30;15.05;;;1.60;99.90;;;;;;5112781;28;20202;-81
2021/01/31 10:39:04;;;;;;;33.38;16.88;;;1.60;99.90;;;;;;5111420;28;20701;-81
2021/01/31 10:41:30;;;;;;;32.42;17.75;;;1.70;99.90;;;;;;5111208;28;20199;-81
2021/01/31 10:43:58;;;;;;;37.83;19.30;;;1.70;99.90;;;;;;5113035;28;20183;-81
2021/01/31 10:46:24;;;;;;;42.88;19.67;;;1.70;99.90;;;;;;5112304;28;20190;-81
2021/01/31 10:48:50;;;;;;;42.77;21.93;;;1.60;99.90;;;;;;5113196;28;20204;-81
2021/01/31 10:51:16;;;;;;;43.57;20.30;;;1.70;99.90;;;;;;5113372;28;20244;-81
2021/01/31 10:53:41;;;;;;;43.60;21.57;;;1.80;99.90;;;;;;5113379;28;20168;-81
2021/01/31 10:56:07;;;;;;;39.23;21.00;;;1.90;99.90;;;;;;5112031;28;20436;-81
2021/01/31 10:58:34;;;;;;;52.30;23.67;;;1.80;99.90;;;;;;5111082;28;20232;-81
2021/01/31 11:01:00;;;;;;;73.40;31.38;;;1.90;99.90;;;;;;5113134;28;20548;-81
2021/01/31 11:03:26;;;;;;;94.17;39.30;;;2.00;99.90;;;;;;5111992;28;20197;-80
2021/01/31 11:05:51;;;;;;;99.30;41.60;;;2.00;99.90;;;;;;5112159;28;20941;-80
2021/01/31 11:08:17;;;;;;;83.27;33.33;;;2.00;99.90;;;;;;5112299;28;20706;-80
2021/01/31 11:10:43;;;;;;;56.00;26.10;;;2.00;99.90;;;;;;5111638;28;20588;-80
2021/01/31 11:13:08;;;;;;;72.23;29.67;;;1.80;99.90;;;;;;5110649;28;20270;-80
2021/01/31 11:15:34;;;;;;;54.87;25.87;;;1.80;99.90;;;;;;5112020;28;20211;-81
2021/01/31 11:18:00;;;;;;;41.72;17.98;;;1.70;99.90;;;;;;5111204;28;20183;-80
2021/01/31 11:20:26;;;;;;;34.33;18.70;;;1.80;99.90;;;;;;5111582;28;20212;-80
2021/01/31 11:22:51;;;;;;;63.73;27.67;;;1.80;99.90;;;;;;5112079;28;20187;-80
2021/01/31 11:25:17;;;;;;;38.10;18.60;;;1.90;99.90;;;;;;5110559;28;20184;-80
2021/01/31 11:27:43;;;;;;;43.93;21.80;;;1.80;99.90;;;;;;5111024;28;20653;-80
2021/01/31 11:30:09;;;;;;;47.13;22.90;;;1.90;99.90;;;;;;5112022;28;20176;-80
2021/01/31 11:32:34;;;;;;;55.15;23.92;;;1.80;99.90;;;;;;5112021;28;20176;-80
2021/01/31 11:35:00;;;;;;;46.70;20.50;;;1.90;99.90;;;;;;5110644;28;20191;-80
2021/01/31 11:37:26;;;;;;;46.50;21.20;;;1.90;99.90;;;;;;5111920;28;20182;-80
2021/01/31 11:39:51;;;;;;;47.43;23.27;;;1.90;99.90;;;;;;5098810;28;20476;-80
2021/01/31 11:42:17;;;;;;;48.33;24.27;;;1.90;99.90;;;;;;5090163;28;20249;-80
2021/01/31 11:44:44;;;;;;;54.67;24.27;;;1.80;99.90;;;;;;5091540;28;20173;-80
2021/01/31 11:47:09;;;;;;;43.60;20.83;;;1.80;99.90;;;;;;5090781;28;20354;-80
2021/01/31 11:49:35;;;;;;;53.17;24.77;;;1.80;99.90;;;;;;5090510;28;20196;-81
2021/01/31 11:52:01;;;;;;;66.47;27.60;;;1.90;99.90;;;;;;5091825;28;20680;-81
2021/01/31 11:54:27;;;;;;;51.58;24.35;;;1.70;99.90;;;;;;5092260;28;20191;-81
2021/01/31 11:56:53;;;;;;;56.67;28.40;;;1.90;99.90;;;;;;5090507;28;20251;-81
2021/01/31 11:59:18;;;;;;;40.47;20.10;;;1.90;99.90;;;;;;5092384;28;20224;-80
2021/01/31 12:01:44;;;;;;;44.87;22.57;;;1.90;99.90;;;;;;5092066;28;20184;-81
2021/01/31 12:04:09;;;;;;;34.53;19.97;;;2.10;99.90;;;;;;5090810;28;20180;-81
2021/01/31 12:06:36;;;;;;;39.87;22.33;;;2.10;99.90;;;;;;5090365;28;20180;-81
2021/01/31 12:09:02;;;;;;;36.70;18.88;;;2.10;99.90;;;;;;5092044;28;20288;-80
2021/01/31 12:11:28;;;;;;;34.63;17.95;;;2.10;99.90;;;;;;5091644;28;20181;-81
2021/01/31 12:13:57;;;;;;;33.95;20.85;;;2.00;99.90;;;;;;5089787;28;20652;-81
2021/01/31 12:16:22;;;;;;;42.95;21.98;;;2.10;99.90;;;;;;5089909;28;20219;-81
2021/01/31 12:18:48;;;;;;;34.87;21.03;;;2.00;99.90;;;;;;5091180;28;20219;-81
2021/01/31 12:21:15;;;;;;;32.83;18.20;;;2.20;99.90;;;;;;5090134;28;20605;-81
2021/01/31 12:23:41;;;;;;;31.88;16.27;;;2.30;99.90;;;;;;5090683;28;20408;-81
2021/01/31 12:26:06;;;;;;;30.30;17.07;;;2.20;99.90;;;;;;5090064;28;20192;-81
2021/01/31 12:28:32;;;;;;;32.47;18.97;;;2.20;99.90;;;;;;5090623;28;20223;-80
2021/01/31 12:30:58;;;;;;;33.30;19.73;;;2.30;99.90;;;;;;5096141;28;20179;-81
2021/01/31 12:33:23;;;;;;;38.47;18.87;;;2.20;99.90;;;;;;5094172;28;20225;-81
2021/01/31 12:35:49;;;;;;;32.63;17.13;;;2.20;99.90;;;;;;5107073;28;20179;-81
2021/01/31 12:38:15;;;;;;;28.90;16.63;;;2.20;99.90;;;;;;5114724;28;20176;-81
2021/01/31 12:40:41;;;;;;;39.73;21.50;;;2.30;99.90;;;;;;5095955;27;20188;-81
2021/01/31 12:43:07;;;;;;;32.50;17.40;;;2.30;99.90;;;;;;5095224;28;20538;-81
2021/01/31 12:45:33;;;;;;;37.80;18.90;;;2.30;99.90;;;;;;5094060;28;20187;-81
2021/01/31 12:47:59;;;;;;;42.97;20.30;;;2.20;99.90;;;;;;5094836;28;20247;-81
2021/01/31 12:50:29;;;;;;;45.47;20.52;;;2.10;99.90;;;;;;5095043;28;20462;-81
2021/01/31 12:52:54;;;;;;;42.65;21.05;;;2.20;99.90;;;;;;5093044;28;20187;-81
2021/01/31 12:55:20;;;;;;;34.60;21.10;;;2.10;99.90;;;;;;5094919;28;20176;-80
2021/01/31 12:57:46;;;;;;;53.47;27.37;;;2.40;99.90;;;;;;5094277;28;20632;-81
2021/01/31 13:00:16;;;;;;;44.80;20.40;;;2.50;99.90;;;;;;5094294;28;20380;-81
2021/01/31 13:02:41;;;;;;;28.13;15.48;;;2.40;99.90;;;;;;5095000;28;20184;-81
2021/01/31 13:05:09;;;;;;;32.57;18.80;;;2.40;99.90;;;;;;5095016;28;20234;-81
2021/01/31 13:07:35;;;;;;;29.58;18.08;;;2.60;99.90;;;;;;5092638;28;20220;-81
2021/01/31 13:10:01;;;;;;;31.17;18.47;;;2.50;99.90;;;;;;5092666;28;20208;-81